Time;durP1;ratioP1;P1;durP2;ratioP2;P2;SDS_P1;SDS_P2;PMS_P1;PMS_P2;Temp;Humidity;BMP_temperature;BMP_pressure;BME280_temperature;BME280_humidity;BME280_pressure;Samples;Min_cycle;Max_cycle;Signal;HPM_P1;HPM_P2
2021/12/11 00:02:22;;;;;;;167.15;76.10;;;;;;;-1.93;77.87;96028.15;1678059;84;27430;-81
2021/12/11 00:04:54;;;;;;;188.93;79.95;;;;;;;-1.92;77.86;96029.80;1680722;83;25288;-80
2021/12/11 00:07:21;;;;;;;194.52;78.02;;;;;;;-1.90;77.87;96035.75;1681014;84;32451;-80
2021/12/11 00:10:02;;;;;;;146.32;64.95;;;;;;;-1.90;77.85;96034.93;1678182;84;26331;-80
2021/12/11 00:12:37;;;;;;;145.15;63.70;;;;;;;-1.89;77.85;96038.73;1680601;84;25831;-80
2021/12/11 00:15:15;;;;;;;143.78;61.37;;;;;;;-1.86;77.86;96043.70;1678183;84;27426;-80
2021/12/11 00:17:41;;;;;;;132.37;59.35;;;;;;;-1.84;77.84;96045.68;1711864;82;26151;-80
2021/12/11 00:20:16;;;;;;;128.85;59.42;;;;;;;-1.81;77.88;96047.97;1692099;84;25769;-80
2021/12/11 00:22:44;;;;;;;134.87;59.63;;;;;;;-1.80;77.83;96051.44;1704889;82;25801;-80
2021/12/11 00:25:13;;;;;;;130.85;59.95;;;;;;;-1.79;77.82;96050.95;1718876;82;25250;-80
2021/12/11 00:27:43;;;;;;;120.97;58.38;;;;;;;-1.81;77.81;96046.64;1719159;82;26769;-80
2021/12/11 00:30:21;;;;;;;124.22;56.98;;;;;;;-1.79;77.83;96052.27;1719094;82;25862;-80
2021/12/11 00:32:48;;;;;;;126.38;58.60;;;;;;;-1.79;77.86;96053.59;1719026;82;25756;-80
2021/12/11 00:35:20;;;;;;;127.25;59.20;;;;;;;-1.82;77.85;96056.92;1719150;82;25816;-80
2021/12/11 00:37:48;;;;;;;;;;;;;;;-1.83;77.87;96059.23;1721693;82;25739;-80
2021/12/11 00:40:20;;;;;;;121.05;55.75;;;;;;;-1.83;77.91;96062.38;1719104;82;27521;-80
2021/12/11 00:42:49;;;;;;;;;;;;;;;-1.84;77.94;96062.88;1721279;82;25874;-80
2021/12/11 00:45:20;;;;;;;116.33;55.70;;;;;;;-1.83;77.98;96067.67;1719072;83;25848;-80
2021/12/11 00:48:00;;;;;;;114.27;53.47;;;;;;;-1.84;77.89;96076.59;1719319;82;25676;-80
2021/12/11 00:50:32;;;;;;;106.03;52.30;;;;;;;-1.86;77.89;96076.76;1711176;82;25720;-79
2021/12/11 00:53:12;;;;;;;111.30;51.92;;;;;;;-1.87;77.85;96083.04;1718706;82;27389;-79
2021/12/11 00:55:52;;;;;;;176.85;75.92;;;;;;;-1.88;77.81;96083.20;1719096;83;25804;-80
2021/12/11 00:58:35;;;;;;;208.95;89.40;;;;;;;-1.94;77.78;96076.77;1719099;82;25881;-80
2021/12/11 01:01:15;;;;;;;194.95;92.05;;;;;;;-2.01;77.82;96080.23;1719060;82;25688;-80
2021/12/11 01:03:53;;;;;;;211.30;90.45;;;;;;;-2.04;77.91;96078.73;1719124;83;25674;-80
2021/12/11 01:06:30;;;;;;;208.70;90.10;;;;;;;-2.02;78.02;96082.05;1718862;82;27427;-80
2021/12/11 01:09:05;;;;;;;231.97;87.80;;;;;;;-1.97;78.08;96082.88;1719245;82;25987;-80
2021/12/11 01:11:59;;;;;;;173.50;76.70;;;;;;;-1.95;78.07;96096.28;1719201;82;25786;-80
2021/12/11 01:14:34;;;;;;;131.10;55.20;;;;;;;-1.96;78.02;96099.09;1719012;83;25835;-81
2021/12/11 01:17:06;;;;;;;171.77;74.15;;;;;;;-1.93;78.09;96090.80;1718458;82;25746;-81
2021/12/11 01:19:38;;;;;;;150.87;68.33;;;;;;;-1.94;78.07;96103.72;1719026;82;28304;-80
2021/12/11 01:22:22;;;;;;;148.62;66.45;;;;;;;-1.91;78.11;96104.19;1719194;83;25820;-81
2021/12/11 01:24:45;;;;;;;166.90;71.02;;;;;;;-1.97;77.93;96100.90;1717484;82;25765;-80
2021/12/11 01:27:17;;;;;;;155.70;69.50;;;;;;;-2.04;77.91;96109.64;1719574;82;25705;-81
2021/12/11 01:29:48;;;;;;;167.15;69.32;;;;;;;-2.04;77.98;96108.31;1718931;82;25663;-80
2021/12/11 01:32:16;;;;;;;141.97;61.70;;;;;;;-2.04;77.94;96114.44;1718335;82;28325;-81
2021/12/11 01:34:44;;;;;;;131.40;60.17;;;;;;;-2.05;77.93;96114.63;1719162;82;25740;-81
2021/12/11 01:37:12;;;;;;;147.15;67.30;;;;;;;-2.08;77.92;96103.88;1719217;82;25726;-81
2021/12/11 01:39:41;;;;;;;143.62;59.70;;;;;;;-2.07;77.93;96106.86;1696311;83;26328;-81
2021/12/11 01:42:19;;;;;;;116.33;53.55;;;;;;;-2.06;77.95;96113.80;1719237;82;25813;-81
2021/12/11 01:44:46;;;;;;;100.85;48.80;;;;;;;-2.07;77.92;96116.11;1718800;82;27384;-81
2021/12/11 01:47:18;;;;;;;103.65;49.27;;;;;;;-2.13;77.88;96114.11;1727436;80;25791;-80
2021/12/11 01:49:50;;;;;;;111.65;50.50;;;;;;;-2.13;77.93;96118.56;1725045;81;26461;-81
2021/12/11 01:52:39;;;;;;;106.97;47.55;;;;;;;-2.15;77.95;96112.12;1724994;81;25701;-81
2021/12/11 01:55:19;;;;;;;98.15;46.18;;;;;;;-2.17;77.79;96116.24;1738923;81;25732;-81
2021/12/11 01:57:51;;;;;;;91.28;46.92;;;;;;;-2.22;77.76;96115.09;1739587;81;27428;-80
2021/12/11 02:00:23;;;;;;;97.78;45.03;;;;;;;-2.25;77.75;96110.13;1739633;82;25747;-81
2021/12/11 02:02:54;;;;;;;114.37;55.17;;;;;;;-2.26;77.75;96119.05;1736720;81;25720;-81
2021/12/11 02:05:25;;;;;;;117.60;55.80;;;;;;;-2.31;77.75;96118.23;1739513;81;26494;-80
2021/12/11 02:07:57;;;;;;;132.05;58.92;;;;;;;-2.33;77.73;96117.56;1739675;81;25725;-81
2021/12/11 02:10:44;;;;;;;111.68;48.10;;;;;;;-2.35;77.70;96122.68;1739660;81;27420;-81
2021/12/11 02:13:21;;;;;;;172.10;75.17;;;;;;;-2.42;77.65;96126.48;1739366;81;25677;-81
2021/12/11 02:15:49;;;;;;;151.65;68.90;;;;;;;-2.47;77.80;96127.45;1738829;81;25728;-81
2021/12/11 02:18:17;;;;;;;142.15;63.83;;;;;;;-2.44;77.92;96132.91;1732140;82;26528;-81
2021/12/11 02:20:56;;;;;;;131.87;60.55;;;;;;;-2.44;77.98;96134.23;1727854;82;25721;-80
2021/12/11 02:23:24;;;;;;;153.53;64.97;;;;;;;-2.40;77.99;96131.58;1729037;81;27351;-81
2021/12/11 02:25:55;;;;;;;171.35;73.40;;;;;;;-2.38;77.90;96136.20;1728928;81;25700;-81
2021/12/11 02:28:39;;;;;;;186.22;77.75;;;;;;;-2.40;77.88;96136.86;1728265;81;25262;-80
2021/12/11 02:31:27;;;;;;;184.93;78.65;;;;;;;-2.39;77.83;96142.48;1728507;81;25742;-81
2021/12/11 02:34:12;;;;;;;171.40;77.20;;;;;;;-2.41;77.83;96145.77;1728851;81;26357;-81
2021/12/11 02:36:46;;;;;;;169.85;73.25;;;;;;;-2.41;77.86;96147.92;1728812;81;27404;-81
2021/12/11 02:39:24;;;;;;;166.03;71.35;;;;;;;-2.42;77.79;96152.91;1728693;81;25688;-81
2021/12/11 02:42:08;;;;;;;149.47;65.80;;;;;;;-2.47;77.67;96151.72;1729116;81;25657;-81
2021/12/11 02:44:55;;;;;;;121.37;55.50;;;;;;;-2.52;77.73;96159.29;1727191;82;25692;-81
2021/12/11 02:47:30;;;;;;;133.18;59.95;;;;;;;-2.52;77.74;96164.58;1728117;82;25740;-80
2021/12/11 02:50:02;;;;;;;144.32;59.63;;;;;;;-2.52;77.75;96165.89;1728201;82;27381;-81
2021/12/11 02:52:40;;;;;;;140.52;62.15;;;;;;;-2.55;77.61;96167.06;1726437;81;25846;-80
2021/12/11 02:55:36;;;;;;;152.25;64.70;;;;;;;-2.62;77.51;96174.80;1729089;81;25764;-81
2021/12/11 02:58:11;;;;;;;143.35;63.35;;;;;;;-2.67;77.44;96178.42;1729099;81;26473;-81
2021/12/11 03:00:42;;;;;;;155.78;66.72;;;;;;;-2.70;77.39;96179.23;1721444;81;25692;-81
2021/12/11 03:03:12;;;;;;;149.32;65.37;;;;;;;-2.72;77.38;96184.66;1729102;81;27371;-81
2021/12/11 03:05:49;;;;;;;150.40;63.33;;;;;;;-2.77;77.09;96192.22;1728959;81;25250;-81
2021/12/11 03:08:17;;;;;;;146.35;62.05;;;;;;;-2.82;77.07;96191.06;1728589;81;25764;-81
2021/12/11 03:10:49;;;;;;;152.80;63.80;;;;;;;-2.87;77.06;96186.73;1729108;82;26521;-81
2021/12/11 03:13:16;;;;;;;132.57;61.28;;;;;;;-2.90;77.06;96194.50;1727719;82;25791;-81
2021/12/11 03:15:42;;;;;;;140.35;60.40;;;;;;;-2.95;76.91;96194.13;1729128;81;27427;-81
2021/12/11 03:18:11;;;;;;;147.87;62.33;;;;;;;-2.99;76.91;96202.02;1725268;82;25650;-81
2021/12/11 03:20:39;;;;;;;133.00;61.68;;;;;;;-3.04;76.74;96208.28;1729053;81;25708;-82
2021/12/11 03:23:07;;;;;;;130.43;58.35;;;;;;;-3.07;76.83;96217.83;1728990;82;25796;-81
2021/12/11 03:25:36;;;;;;;131.82;61.33;;;;;;;-3.15;76.79;96218.63;1729443;81;25725;-81
2021/12/11 03:28:05;;;;;;;117.33;52.25;;;;;;;-3.17;76.81;96218.43;1747892;80;27350;-82
2021/12/11 03:30:37;;;;;;;119.05;52.55;;;;;;;-3.22;76.81;96223.33;1747358;80;25675;-81
2021/12/11 03:33:12;;;;;;;117.47;51.53;;;;;;;-3.24;76.91;96223.97;1747729;80;25767;-82
2021/12/11 03:35:40;;;;;;;104.05;47.38;;;;;;;-3.37;76.81;96217.30;1708772;83;26538;-81
2021/12/11 03:38:09;;;;;;;100.70;46.20;;;;;;;-3.40;76.97;96229.50;1690655;83;25765;-82
2021/12/11 03:40:36;;;;;;;108.78;48.87;;;;;;;-3.51;76.96;96229.75;1690822;83;27384;-81
2021/12/11 03:43:08;;;;;;;98.05;45.17;;;;;;;-3.50;77.08;96235.33;1690639;83;25768;-82
2021/12/11 03:45:39;;;;;;;106.45;48.08;;;;;;;-3.54;77.07;96236.64;1690947;83;31122;-81
2021/12/11 03:48:20;;;;;;;99.62;48.15;;;;;;;-3.59;77.18;96236.26;1690791;83;25785;-82
2021/12/11 03:50:46;;;;;;;111.72;47.60;;;;;;;-3.56;77.20;96241.23;1690949;83;25981;-82
2021/12/11 03:53:15;;;;;;;97.90;44.45;;;;;;;-3.60;77.02;96249.10;1690957;83;26786;-81
2021/12/11 03:55:49;;;;;;;96.00;45.88;;;;;;;-3.62;76.99;96261.61;1690662;83;25850;-82
2021/12/11 03:58:16;;;;;;;101.20;46.42;;;;;;;-3.62;77.01;96258.97;1690406;82;25685;-82
2021/12/11 04:00:51;;;;;;;105.60;47.23;;;;;;;-3.62;77.01;96269.03;1690759;83;25761;-82
2021/12/11 04:03:22;;;;;;;101.58;45.48;;;;;;;-3.62;76.92;96263.45;1690394;83;25751;-82
2021/12/11 04:05:50;;;;;;;98.90;47.07;;;;;;;-3.67;76.80;96268.67;1691079;84;27603;-82
2021/12/11 04:08:22;;;;;;;97.12;43.42;;;;;;;-3.72;76.71;96275.38;1690623;84;25732;-82
2021/12/11 04:10:49;;;;;;;101.92;45.58;;;;;;;-3.77;76.73;96273.20;1690974;83;35410;-82
2021/12/11 04:13:17;;;;;;;97.78;44.70;;;;;;;-3.79;76.74;96283.56;1690754;83;25694;-82
2021/12/11 04:15:49;;;;;;;95.85;44.90;;;;;;;-3.79;76.78;96286.20;1690854;83;25781;-82
2021/12/11 04:18:16;;;;;;;88.12;41.23;;;;;;;-3.82;76.72;96293.08;1693180;83;26883;-81
2021/12/11 04:20:45;;;;;;;86.55;41.30;;;;;;;-3.82;76.81;96293.08;1749706;80;25741;-81
2021/12/11 04:23:14;;;;;;;85.07;39.80;;;;;;;-3.82;76.79;96293.08;1750107;80;25767;-81
2021/12/11 04:25:44;;;;;;;93.12;42.10;;;;;;;-3.83;76.71;96292.73;1750073;80;26499;-81
2021/12/11 04:28:16;;;;;;;89.50;40.73;;;;;;;-3.84;76.70;96288.44;1750066;80;25712;-81
2021/12/11 04:30:42;;;;;;;90.22;40.90;;;;;;;-3.89;76.60;96283.63;1750115;80;27369;-81
2021/12/11 04:33:10;;;;;;;96.22;41.30;;;;;;;-3.94;76.60;96287.20;1749732;82;25724;-81
2021/12/11 04:35:36;;;;;;;83.60;37.85;;;;;;;-3.93;76.57;96291.98;1750122;80;25831;-82
2021/12/11 04:38:08;;;;;;;81.15;36.35;;;;;;;-3.98;76.58;96291.61;1749824;80;25794;-81
2021/12/11 04:40:38;;;;;;;88.85;37.35;;;;;;;-4.03;76.63;96296.83;1750241;80;25670;-81
2021/12/11 04:43:14;;;;;;;71.80;34.67;;;;;;;-4.04;76.65;96302.25;1750208;81;27351;-81
2021/12/11 04:46:01;;;;;;;79.37;37.90;;;;;;;-4.03;76.68;96311.33;1749875;80;25774;-81
2021/12/11 04:49:05;;;;;;;85.15;38.20;;;;;;;-4.04;76.63;96312.30;1749150;80;25766;-81
2021/12/11 04:51:37;;;;;;;89.35;40.52;;;;;;;-4.06;76.57;96318.70;1749349;80;25749;-82
2021/12/11 04:54:14;;;;;;;83.15;37.83;;;;;;;-4.09;76.59;96326.41;1750867;80;25632;-81
2021/12/11 05:04:48;;;;;;;69.60;35.03;;;;;;;-4.16;76.39;96334.56;1750127;80;26540;-81
2021/12/11 05:07:20;;;;;;;77.25;35.17;;;;;;;-4.18;76.29;96333.05;1748925;80;25680;-82
2021/12/11 05:09:42;;;;;;;92.53;41.77;;;;;;;-4.21;76.28;96332.84;1748354;80;28252;-82
2021/12/11 05:12:30;;;;;;;84.62;38.58;;;;;;;-4.23;76.20;96334.00;1748280;80;26445;-82
2021/12/11 05:14:47;;;;;;;84.60;36.48;;;;;;;-4.28;76.15;96333.59;1765299;80;25236;-82
2021/12/11 05:17:15;;;;;;;79.15;36.85;;;;;;;-4.34;76.09;96344.20;1781124;80;25665;-82
2021/12/11 05:19:43;;;;;;;88.72;38.58;;;;;;;-4.36;76.15;96344.87;1781260;79;25737;-82
2021/12/11 05:22:11;;;;;;;92.78;44.60;;;;;;;-4.37;76.05;96355.89;1781419;79;27457;-82
2021/12/11 05:24:42;;;;;;;91.85;42.20;;;;;;;-4.40;76.04;96354.02;1781467;79;25905;-81
2021/12/11 05:27:09;;;;;;;100.27;46.15;;;;;;;-4.41;76.05;96358.95;1781402;79;25766;-81
2021/12/11 05:29:37;;;;;;;104.55;46.48;;;;;;;-4.41;76.11;96364.22;1781327;79;25913;-82
2021/12/11 05:32:09;;;;;;;96.72;45.05;;;;;;;-4.42;76.10;96361.23;1781449;79;25719;-81
2021/12/11 05:34:36;;;;;;;106.92;44.90;;;;;;;-4.44;75.98;96368.45;1781618;79;27584;-82
2021/12/11 05:37:04;;;;;;;87.53;40.38;;;;;;;-4.51;75.92;96370.01;1781144;79;25756;-81
2021/12/11 05:39:31;;;;;;;98.05;41.65;;;;;;;-4.51;75.99;96376.59;1781496;79;25762;-81
2021/12/11 05:41:58;;;;;;;88.07;38.75;;;;;;;-4.52;75.96;96380.20;1781418;79;25735;-81
2021/12/11 05:44:26;;;;;;;81.28;38.15;;;;;;;-4.51;75.99;96377.91;1781438;79;25655;-81
2021/12/11 05:46:54;;;;;;;86.25;37.35;;;;;;;-4.51;75.97;96373.96;1781510;79;27445;-81
2021/12/11 05:49:22;;;;;;;88.42;40.40;;;;;;;-4.53;75.94;96378.53;1776733;79;25897;-81
2021/12/11 05:51:51;;;;;;;101.35;43.68;;;;;;;-4.54;75.92;96379.51;1781440;79;25692;-80
2021/12/11 05:54:23;;;;;;;87.57;39.67;;;;;;;-4.55;75.94;96387.06;1781342;79;25946;-82
2021/12/11 05:56:55;;;;;;;84.40;39.30;;;;;;;-4.55;75.88;96392.33;1781392;79;25708;-83
2021/12/11 05:59:22;;;;;;;62.78;27.77;;;;;;;-4.60;75.83;96404.63;1781536;80;27398;-82
2021/12/11 06:02:00;;;;;;;85.57;36.83;;;;;;;-4.61;75.95;96404.77;1781302;79;26274;-82
2021/12/11 06:04:33;;;;;;;95.17;47.88;;;;;;;-4.58;76.02;96413.67;1781398;79;25667;-81
2021/12/11 06:07:05;;;;;;;87.47;41.13;;;;;;;-4.61;75.93;96417.45;1781309;79;25748;-81
2021/12/11 06:09:32;;;;;;;76.82;33.20;;;;;;;-4.67;75.90;96427.22;1781451;79;25714;-81
2021/12/11 06:12:04;;;;;;;80.60;37.58;;;;;;;-4.65;76.00;96436.30;1781240;80;27365;-81
2021/12/11 06:14:32;;;;;;;86.75;40.48;;;;;;;-4.66;75.93;96435.95;1781523;79;25714;-81
2021/12/11 06:17:02;;;;;;;87.50;39.13;;;;;;;-4.68;75.92;96429.98;1781133;79;25842;-81
2021/12/11 06:19:28;;;;;;;87.53;39.67;;;;;;;-4.71;75.94;96422.70;1781034;79;26557;-81
2021/12/11 06:21:57;;;;;;;92.70;40.35;;;;;;;-4.71;75.92;96433.76;1781398;79;25754;-81
2021/12/11 06:24:25;;;;;;;98.10;41.08;;;;;;;-4.73;75.96;96445.74;1781295;79;27339;-81
2021/12/11 06:26:53;;;;;;;100.12;41.90;;;;;;;-4.73;76.01;96457.59;1781305;79;25718;-80
2021/12/11 06:29:21;;;;;;;95.80;43.60;;;;;;;-4.69;76.06;96457.28;1781399;79;25721;-81
2021/12/11 06:31:49;;;;;;;105.50;45.40;;;;;;;-4.69;76.01;96462.55;1781439;79;26413;-81
2021/12/11 06:34:16;;;;;;;99.05;42.27;;;;;;;-4.71;75.99;96471.42;1781417;79;25755;-81
2021/12/11 06:36:44;;;;;;;92.25;40.23;;;;;;;-4.73;76.03;96479.97;1781387;80;27382;-81
2021/12/11 06:39:16;;;;;;;85.38;37.53;;;;;;;-4.68;76.07;96489.23;1781320;79;26147;-81
2021/12/11 06:41:49;;;;;;;83.03;39.13;;;;;;;-4.69;76.00;96492.83;1781155;79;25662;-81
2021/12/11 06:44:15;;;;;;;90.40;45.78;;;;;;;-4.72;76.01;96485.59;1781399;79;25742;-81
2021/12/11 06:46:42;;;;;;;86.28;43.33;;;;;;;-4.70;76.01;96490.69;1781385;79;25632;-81
2021/12/11 06:49:10;;;;;;;93.07;47.45;;;;;;;-4.69;76.00;96487.57;1781476;79;27357;-81
2021/12/11 06:51:38;;;;;;;99.72;46.63;;;;;;;-4.71;76.04;96480.64;1781342;79;25703;-81
2021/12/11 06:54:10;;;;;;;88.15;43.38;;;;;;;-4.69;76.08;96482.30;1781472;79;25786;-81
2021/12/11 06:56:39;;;;;;;92.88;44.88;;;;;;;-4.66;76.15;96481.55;1781319;79;26361;-81
2021/12/11 06:59:07;;;;;;;107.25;52.53;;;;;;;-4.62;76.18;96490.01;1781390;79;25220;-81
2021/12/11 07:01:35;;;;;;;105.58;54.35;;;;;;;-4.60;76.25;96490.70;1781295;79;27362;-81
2021/12/11 07:04:03;;;;;;;119.20;66.60;;;;;;;-4.55;76.35;96492.41;1781249;79;26008;-81
2021/12/11 07:06:31;;;;;;;116.82;61.45;;;;;;;-4.51;76.48;96500.39;1781277;79;25647;-81
2021/12/11 07:09:00;;;;;;;108.45;58.48;;;;;;;-4.50;76.35;96499.42;1781036;79;25828;-81
2021/12/11 07:11:26;;;;;;;107.83;55.20;;;;;;;-4.54;76.25;96509.87;1781369;80;25689;-81
2021/12/11 07:13:54;;;;;;;110.15;56.00;;;;;;;-4.55;76.12;96517.43;1781253;79;27486;-81
2021/12/11 07:16:21;;;;;;;118.75;57.30;;;;;;;-4.56;76.02;96530.25;1781193;79;25913;-81
2021/12/11 07:18:47;;;;;;;139.22;66.55;;;;;;;-4.53;76.00;96533.94;1780846;79;25687;-82
2021/12/11 07:21:14;;;;;;;148.78;69.87;;;;;;;-4.51;75.96;96545.16;1778247;80;26330;-82
2021/12/11 07:23:47;;;;;;;134.80;67.50;;;;;;;-4.55;75.80;96539.82;1778215;79;25242;-82
2021/12/11 07:26:22;;;;;;;132.18;64.32;;;;;;;-4.62;75.73;96543.99;1777797;79;27371;-82
2021/12/11 07:28:52;;;;;;;128.57;61.25;;;;;;;-4.67;75.77;96546.20;1778017;79;25696;-82
2021/12/11 07:31:21;;;;;;;126.13;53.33;;;;;;;-4.72;75.91;96554.05;1778599;79;26026;-82
2021/12/11 07:33:50;;;;;;;140.03;66.82;;;;;;;-4.67;76.09;96560.68;1778273;79;25788;-81
2021/12/11 07:36:17;;;;;;;155.40;72.00;;;;;;;-4.65;76.15;96564.84;1778009;79;25708;-81
2021/12/11 07:38:44;;;;;;;143.65;69.70;;;;;;;-4.60;76.06;96571.86;1777948;80;28433;-80
2021/12/11 07:41:13;;;;;;;172.32;83.92;;;;;;;-4.57;76.04;96578.63;1778104;79;25719;-81
2021/12/11 07:43:42;;;;;;;198.23;95.35;;;;;;;-4.55;76.07;96572.74;1778215;79;25719;-82
2021/12/11 07:46:17;;;;;;;227.65;112.45;;;;;;;-4.50;76.16;96572.69;1778246;79;26282;-82
2021/12/11 07:48:44;;;;;;;203.52;95.65;;;;;;;-4.49;76.15;96562.98;1777410;79;25622;-82
2021/12/11 07:51:12;;;;;;;191.50;89.80;;;;;;;-4.44;76.15;96577.88;1778181;79;27414;-81
2021/12/11 07:53:38;;;;;;;185.85;84.35;;;;;;;-4.48;76.15;96577.82;1778105;79;25688;-83
2021/12/11 07:56:06;;;;;;;184.07;84.25;;;;;;;-4.44;76.37;96584.45;1778263;79;25707;-83
2021/12/11 07:58:34;;;;;;;186.55;89.03;;;;;;;-4.37;76.61;96588.22;1778286;79;25910;-82
2021/12/11 08:01:05;;;;;;;162.85;76.72;;;;;;;-4.30;76.69;96589.31;1778276;79;25689;-82
2021/12/11 08:03:32;;;;;;;158.33;75.23;;;;;;;-4.20;76.82;96595.40;1778484;79;27352;-83
2021/12/11 08:05:59;;;;;;;158.35;77.60;;;;;;;-4.11;76.88;96597.70;1778046;79;25959;-83
2021/12/11 08:08:26;;;;;;;148.35;76.37;;;;;;;-4.04;76.81;96604.89;1778227;79;25765;-82
2021/12/11 08:10:57;;;;;;;152.50;77.65;;;;;;;-3.96;76.77;96614.72;1778238;79;26349;-83
2021/12/11 08:13:25;;;;;;;162.40;79.87;;;;;;;-3.88;76.74;96616.67;1778386;79;25754;-83
2021/12/11 08:15:55;;;;;;;162.70;80.25;;;;;;;-3.80;76.69;96619.42;1778227;79;27382;-82
2021/12/11 08:18:22;;;;;;;148.57;72.90;;;;;;;-3.73;76.70;96628.42;1778262;79;25756;-82
2021/12/11 08:20:49;;;;;;;155.03;78.57;;;;;;;-3.66;76.68;96636.12;1777943;79;25757;-82
2021/12/11 08:23:17;;;;;;;197.70;93.78;;;;;;;-3.59;76.71;96643.80;1778254;79;25725;-82
2021/12/11 08:25:46;;;;;;;184.10;89.97;;;;;;;-3.47;76.59;96649.26;1778309;80;25624;-82
2021/12/11 08:28:17;;;;;;;174.85;85.72;;;;;;;-3.40;76.40;96651.69;1773822;80;28182;-82
2021/12/11 08:30:47;;;;;;;147.85;74.10;;;;;;;-3.31;76.37;96661.38;1746446;81;25742;-82
2021/12/11 08:33:15;;;;;;;225.95;91.00;;;;;;;-3.22;76.31;96668.07;1747079;80;25987;-82
2021/12/11 08:35:44;;;;;;;159.18;79.10;;;;;;;-3.21;76.13;96668.42;1747365;80;25789;-82
2021/12/11 08:38:11;;;;;;;156.60;79.90;;;;;;;-3.18;76.14;96670.78;1747355;80;25780;-82
2021/12/11 08:40:43;;;;;;;169.37;82.57;;;;;;;-3.15;76.05;96675.78;1747369;80;27389;-82
2021/12/11 08:43:12;;;;;;;178.42;90.15;;;;;;;-3.05;76.14;96677.89;1747365;80;32699;-80
2021/12/11 08:45:56;;;;;;;181.25;92.22;;;;;;;-2.94;76.14;96676.38;1747333;80;25845;-82
2021/12/11 08:48:22;;;;;;;199.75;100.70;;;;;;;-2.77;76.19;96676.08;1746204;80;25726;-82
2021/12/11 08:50:54;;;;;;;190.80;97.67;;;;;;;-2.53;76.21;96680.33;1747421;81;25791;-81
2021/12/11 08:53:22;;;;;;;188.18;96.82;;;;;;;-2.27;76.10;96678.63;1747507;80;27448;-80
2021/12/11 08:55:54;;;;;;;160.80;83.80;;;;;;;-2.05;76.03;96687.94;1747267;80;25237;-82
2021/12/11 08:58:22;;;;;;;;;;;;;;;-1.81;75.99;96690.80;1749663;80;25692;-81
2021/12/11 09:01:20;;;;;;;148.28;78.05;;;;;;;-1.57;75.97;96693.34;1747329;80;25901;-81
2021/12/11 09:03:57;;;;;;;109.90;59.93;;;;;;;-1.34;76.05;96693.18;1747329;80;25791;-82
2021/12/11 09:06:35;;;;;;;116.45;60.65;;;;;;;-1.10;75.80;96688.05;1747316;80;27481;-81
2021/12/11 09:09:32;;;;;;;120.57;60.60;;;;;;;-0.99;75.54;96698.86;1745362;79;25854;-82
2021/12/11 09:12:10;;;;;;;118.65;64.00;;;;;;;-0.87;75.48;96704.72;1731127;80;26441;-81
2021/12/11 09:14:45;;;;;;;125.45;62.98;;;;;;;-0.66;75.40;96702.50;1747139;80;25713;-81
2021/12/11 09:17:20;;;;;;;130.60;64.03;;;;;;;-0.51;74.99;96701.41;1746300;80;25676;-82
2021/12/11 09:20:10;;;;;;;128.90;66.02;;;;;;;-0.42;74.71;96698.63;1747943;80;27358;-82
2021/12/11 09:23:00;;;;;;;121.17;63.05;;;;;;;-0.29;74.35;96706.13;1749548;80;25288;-83
2021/12/11 09:25:31;;;;;;;128.23;66.62;;;;;;;-0.12;74.57;96709.14;1749614;81;25751;-82
2021/12/11 09:28:21;;;;;;;138.90;72.50;;;;;;;0.08;74.49;96712.86;1749835;80;26349;-82
2021/12/11 09:30:53;;;;;;;134.35;67.50;;;;;;;0.25;74.41;96712.70;1750211;80;25675;-82
2021/12/11 09:33:25;;;;;;;115.22;63.05;;;;;;;0.40;74.22;96709.40;1750359;80;32761;-81
2021/12/11 09:36:02;;;;;;;115.70;62.85;;;;;;;0.48;73.87;96713.41;1750255;80;33947;-82
2021/12/11 09:38:34;;;;;;;111.65;59.10;;;;;;;0.67;73.90;96720.53;1748594;80;25736;-82
2021/12/11 09:41:24;;;;;;;104.83;59.10;;;;;;;0.87;73.74;96717.02;1750278;80;26538;-82
2021/12/11 09:44:22;;;;;;;127.10;67.22;;;;;;;1.07;73.74;96710.38;1710477;82;25793;-82
2021/12/11 09:47:12;;;;;;;127.72;67.47;;;;;;;1.28;73.41;96708.98;1750085;80;27371;-82
2021/12/11 09:49:44;;;;;;;127.38;66.85;;;;;;;1.28;72.46;96714.30;1750074;80;25855;-81
2021/12/11 09:52:23;;;;;;;132.50;69.53;;;;;;;1.33;72.13;96707.95;1750147;80;25760;-82
2021/12/11 09:55:05;;;;;;;119.40;62.40;;;;;;;1.43;71.97;96713.43;1749658;80;25663;-82
2021/12/11 09:57:36;;;;;;;112.22;59.18;;;;;;;1.57;72.08;96713.19;1749863;80;25755;-82
2021/12/11 10:00:11;;;;;;;104.45;57.67;;;;;;;1.86;72.17;96711.75;1750145;80;28283;-82
2021/12/11 10:02:38;;;;;;;104.10;59.67;;;;;;;2.04;71.53;96720.31;1750083;80;26370;-82
2021/12/11 10:05:36;;;;;;;112.68;62.08;;;;;;;2.15;71.73;96725.24;1750170;80;25736;-83
2021/12/11 10:08:25;;;;;;;121.55;64.65;;;;;;;2.23;71.25;96717.20;1747562;81;26533;-83
2021/12/11 10:10:30;;;;;;;103.10;59.75;;;;;;;2.23;71.37;96729.18;1745567;80;25651;-82
2021/12/11 10:12:58;;;;;;;106.70;59.55;;;;;;;2.35;71.41;96730.44;1750150;80;26577;-82
2021/12/11 10:15:29;;;;;;;106.20;58.35;;;;;;;2.53;71.06;96732.33;1749942;80;26010;-81
2021/12/11 10:18:04;;;;;;;95.42;52.15;;;;;;;2.70;71.06;96725.52;1750431;80;25237;-82
2021/12/11 10:20:42;;;;;;;84.13;49.67;;;;;;;2.95;70.91;96730.97;1749752;80;26575;-82
2021/12/11 10:23:12;;;;;;;85.70;49.00;;;;;;;3.20;70.62;96728.91;1749925;80;25823;-81
2021/12/11 10:25:42;;;;;;;87.35;48.13;;;;;;;3.31;70.37;96733.80;1750397;80;27433;-81
2021/12/11 10:28:13;;;;;;;86.60;49.80;;;;;;;3.45;70.43;96729.48;1750330;80;25819;-81
2021/12/11 10:30:44;;;;;;;82.35;49.63;;;;;;;3.68;70.16;96735.56;1750400;80;25291;-81
2021/12/11 10:33:15;;;;;;;82.92;49.38;;;;;;;3.89;69.47;96732.96;1750530;80;25748;-81
2021/12/11 10:35:47;;;;;;;79.67;46.25;;;;;;;3.95;69.29;96727.40;1750463;81;25698;-81
2021/12/11 10:38:14;;;;;;;84.15;48.98;;;;;;;4.15;69.26;96732.47;1750617;80;28331;-81
2021/12/11 10:40:46;;;;;;;80.35;48.02;;;;;;;4.18;68.14;96729.94;1750366;80;25781;-82
2021/12/11 10:43:21;;;;;;;79.80;46.55;;;;;;;4.07;68.19;96737.09;1750557;81;25713;-82
2021/12/11 10:45:50;;;;;;;80.12;46.88;;;;;;;3.97;67.95;96746.73;1750388;81;26415;-82
2021/12/11 10:48:22;;;;;;;88.60;50.08;;;;;;;3.93;68.20;96748.11;1750402;81;25684;-81
2021/12/11 10:51:12;;;;;;;78.70;47.38;;;;;;;4.10;68.45;96751.42;1750310;81;28170;-81
2021/12/11 10:53:42;;;;;;;82.10;48.83;;;;;;;4.17;68.24;96753.65;1750280;80;25749;-81
2021/12/11 10:56:09;;;;;;;95.72;52.15;;;;;;;4.18;67.81;96743.29;1750258;80;25711;-81
2021/12/11 10:58:41;;;;;;;96.75;53.55;;;;;;;4.12;67.48;96743.52;1750353;81;25820;-81
2021/12/11 11:01:16;;;;;;;90.22;51.35;;;;;;;4.11;67.57;96747.20;1749847;80;25782;-82
2021/12/11 11:03:48;;;;;;;82.10;47.33;;;;;;;4.27;67.79;96744.83;1750053;81;28052;-81
2021/12/11 11:06:14;;;;;;;86.53;50.92;;;;;;;4.23;67.30;96746.20;1750429;80;25667;-81
2021/12/11 11:08:42;;;;;;;87.47;50.35;;;;;;;4.22;67.50;96743.25;1750403;81;25806;-81
2021/12/11 11:11:14;;;;;;;74.37;44.48;;;;;;;4.21;67.46;96750.43;1750348;80;25746;-82
2021/12/11 11:13:41;;;;;;;73.45;43.90;;;;;;;4.21;67.42;96762.95;1750423;80;25762;-82
2021/12/11 11:16:08;;;;;;;74.62;44.83;;;;;;;4.08;67.26;96771.63;1750345;80;28200;-82
2021/12/11 11:18:36;;;;;;;84.07;47.08;;;;;;;4.01;67.42;96773.37;1750319;80;25703;-82
2021/12/11 11:21:08;;;;;;;80.97;46.95;;;;;;;4.01;67.46;96784.56;1748809;80;25909;-81
2021/12/11 11:23:36;;;;;;;82.67;47.48;;;;;;;3.99;67.46;96792.25;1746071;80;25746;-82
2021/12/11 11:26:08;;;;;;;80.07;46.13;;;;;;;3.96;67.45;96790.48;1747479;80;25672;-82
2021/12/11 11:28:36;;;;;;;82.88;48.95;;;;;;;3.92;67.39;96790.00;1747545;80;27385;-82
2021/12/11 11:31:08;;;;;;;79.17;46.73;;;;;;;3.89;67.28;96789.03;1747243;80;25817;-81
2021/12/11 11:33:36;;;;;;;83.07;48.45;;;;;;;3.80;67.31;96790.14;1747329;80;25644;-82
2021/12/11 11:36:07;;;;;;;75.57;44.53;;;;;;;3.73;67.56;96787.90;1747484;80;26240;-82
2021/12/11 11:38:41;;;;;;;74.47;44.80;;;;;;;3.73;67.51;96789.23;1747058;80;42884;-82
2021/12/11 11:41:12;;;;;;;73.37;43.50;;;;;;;3.63;67.41;96793.98;1747403;82;27642;-82
2021/12/11 11:43:41;;;;;;;74.32;41.58;;;;;;;3.53;67.70;96788.09;1747453;80;25700;-82
2021/12/11 11:46:09;;;;;;;71.90;41.33;;;;;;;3.52;67.80;96783.77;1747422;80;25803;-82